createdAt,value
2022-12-11T00:02:06.332Z,2.46
2022-12-11T00:04:33.241Z,2.52
2022-12-11T00:07:00.107Z,2.35
2022-12-11T00:09:27.076Z,2.40
2022-12-11T00:11:54.121Z,2.29
2022-12-11T00:14:21.029Z,2.09
2022-12-11T00:16:49.804Z,2.07
2022-12-11T00:19:17.174Z,2.12
2022-12-11T00:21:44.732Z,2.05
2022-12-11T00:24:11.657Z,2.02
2022-12-11T00:26:38.942Z,2.11
2022-12-11T00:29:06.014Z,2.15
2022-12-11T00:31:32.987Z,2.32
2022-12-11T00:34:01.847Z,2.44
2022-12-11T00:36:28.968Z,2.32
2022-12-11T00:38:55.830Z,2.43
2022-12-11T00:41:22.930Z,2.40
2022-12-11T00:43:50.012Z,2.41
2022-12-11T00:46:17.288Z,2.52
2022-12-11T00:48:44.190Z,2.44
2022-12-11T00:51:11.051Z,2.48
2022-12-11T00:53:39.138Z,2.42
2022-12-11T00:56:17.999Z,2.40
2022-12-11T00:58:46.957Z,2.26
2022-12-11T01:01:17.022Z,2.33
2022-12-11T01:03:44.422Z,2.28
2022-12-11T01:06:19.876Z,2.19
2022-12-11T01:08:47.428Z,2.13
2022-12-11T01:11:16.252Z,2.25
2022-12-11T01:13:43.661Z,2.28
2022-12-11T01:16:16.038Z,2.24
2022-12-11T01:18:43.296Z,2.26
2022-12-11T01:21:13.638Z,2.17
2022-12-11T01:23:40.563Z,2.14
2022-12-11T01:26:15.137Z,2.07
2022-12-11T01:28:42.555Z,2.01
2022-12-11T01:31:10.753Z,1.96
2022-12-11T01:33:38.343Z,1.70
2022-12-11T01:36:14.188Z,1.76
2022-12-11T01:38:41.023Z,1.82
2022-12-11T01:41:08.058Z,1.98
2022-12-11T01:43:35.025Z,1.98
2022-12-11T01:46:01.898Z,1.75
2022-12-11T01:48:30.828Z,1.91
2022-12-11T01:51:03.698Z,1.91
2022-12-11T01:53:34.708Z,1.99
2022-12-11T01:56:01.449Z,1.89
2022-12-11T01:58:33.132Z,1.79
2022-12-11T02:01:00.647Z,1.89
2022-12-11T02:03:27.524Z,1.72
2022-12-11T02:05:54.393Z,1.80
2022-12-11T02:08:21.448Z,1.91
2022-12-11T02:11:06.372Z,1.94
2022-12-11T02:13:58.950Z,1.85
2022-12-11T02:16:46.185Z,1.96
2022-12-11T02:19:37.702Z,1.87
2022-12-11T02:22:09.388Z,1.90
2022-12-11T02:25:18.565Z,1.85
2022-12-11T02:27:56.666Z,1.79
2022-12-11T02:30:24.378Z,1.83
2022-12-11T02:32:55.235Z,1.87
2022-12-11T02:35:21.970Z,1.90
2022-12-11T02:37:52.717Z,1.94
2022-12-11T02:40:23.297Z,1.86
2022-12-11T02:42:50.915Z,1.83
2022-12-11T02:45:19.508Z,1.75
2022-12-11T02:47:48.127Z,1.84
2022-12-11T02:50:18.971Z,1.94
2022-12-11T02:52:47.948Z,1.96
2022-12-11T02:55:15.768Z,1.94
2022-12-11T02:57:56.149Z,2.18
2022-12-11T03:00:22.909Z,2.14
2022-12-11T03:02:49.778Z,1.97
2022-12-11T03:05:17.104Z,2.03
2022-12-11T03:07:44.516Z,1.89
2022-12-11T03:10:14.751Z,1.90
2022-12-11T03:12:43.818Z,1.85
2022-12-11T03:15:15.048Z,1.73
2022-12-11T03:18:06.757Z,1.87
2022-12-11T03:20:44.562Z,1.69
2022-12-11T03:23:32.755Z,1.74
2022-12-11T03:26:02.597Z,1.53
2022-12-11T03:28:49.532Z,1.71
2022-12-11T03:31:39.560Z,1.62
2022-12-11T03:34:13.757Z,1.42
2022-12-11T03:36:40.914Z,1.41
2022-12-11T03:39:11.152Z,1.43
2022-12-11T03:41:40.093Z,1.38
2022-12-11T03:44:07.480Z,1.16
2022-12-11T03:46:37.985Z,1.08
2022-12-11T03:49:19.461Z,1.25
2022-12-11T03:51:47.606Z,1.11
2022-12-11T03:54:14.673Z,1.02
2022-12-11T03:56:43.298Z,1.00
2022-12-11T03:59:10.451Z,1.05
2022-12-11T04:01:37.319Z,1.04
2022-12-11T04:04:04.315Z,0.90
2022-12-11T04:06:31.238Z,0.86
2022-12-11T04:08:58.026Z,0.91
2022-12-11T04:11:37.249Z,0.97
2022-12-11T04:14:28.467Z,0.90
2022-12-11T04:16:55.778Z,0.81
2022-12-11T04:19:43.066Z,0.72
2022-12-11T04:22:33.679Z,0.73
2022-12-11T04:25:01.721Z,0.65
2022-12-11T04:27:47.217Z,0.53
2022-12-11T04:30:18.257Z,0.47
2022-12-11T04:32:45.155Z,0.45
2022-12-11T04:35:12.991Z,0.31
2022-12-11T04:37:40.019Z,0.30
2022-12-11T04:40:09.554Z,0.39
2022-12-11T04:42:36.491Z,0.33
2022-12-11T04:45:03.939Z,0.33
2022-12-11T04:47:30.991Z,0.36
2022-12-11T04:49:57.726Z,0.37
2022-12-11T04:52:24.527Z,0.25
2022-12-11T04:54:51.598Z,0.32
2022-12-11T04:57:18.411Z,0.35
2022-12-11T04:59:45.139Z,0.33
2022-12-11T05:02:11.927Z,0.34
2022-12-11T05:04:38.767Z,0.29
2022-12-11T05:07:05.689Z,0.38
2022-12-11T05:09:33.067Z,0.34
2022-12-11T05:11:59.986Z,0.28
2022-12-11T05:14:27.630Z,0.21
2022-12-11T05:16:54.451Z,0.19
2022-12-11T05:19:21.207Z,0.14
2022-12-11T05:21:48.018Z,0.12
2022-12-11T05:24:14.840Z,0.13
2022-12-11T05:26:41.697Z,0.08
2022-12-11T05:29:08.714Z,0.08
2022-12-11T05:31:35.679Z,0.09
2022-12-11T05:34:02.590Z,0.06
2022-12-11T05:36:32.186Z,-0.02
2022-12-11T05:38:59.728Z,-0.05
2022-12-11T05:41:28.626Z,-0.10
2022-12-11T05:43:55.540Z,-0.09
2022-12-11T05:46:27.593Z,-0.08
2022-12-11T05:48:56.984Z,-0.21
2022-12-11T05:51:24.176Z,-0.26
2022-12-11T05:53:52.238Z,-0.35
2022-12-11T05:56:30.874Z,-0.36
2022-12-11T05:58:59.060Z,-0.29
2022-12-11T06:01:29.113Z,-0.26
2022-12-11T06:03:57.381Z,-0.22
2022-12-11T06:06:24.871Z,-0.15
2022-12-11T06:08:56.413Z,-0.24
2022-12-11T06:11:24.585Z,-0.35
2022-12-11T06:13:52.512Z,-0.30
2022-12-11T06:16:20.753Z,-0.28
2022-12-11T06:18:47.808Z,-0.34
2022-12-11T06:21:22.932Z,-0.30
2022-12-11T06:23:53.030Z,-0.27
2022-12-11T06:26:20.800Z,-0.28
2022-12-11T06:28:48.057Z,-0.20
2022-12-11T06:31:15.668Z,-0.29
2022-12-11T06:33:43.131Z,-0.29
2022-12-11T06:36:12.835Z,-0.23
2022-12-11T06:38:40.144Z,-0.27
2022-12-11T06:41:08.509Z,-0.33
2022-12-11T06:43:37.342Z,-0.32
2022-12-11T06:46:15.951Z,-0.29
2022-12-11T06:48:43.567Z,-0.22
2022-12-11T06:51:13.121Z,-0.20
2022-12-11T06:53:40.405Z,-0.20
2022-12-11T06:56:15.778Z,-0.20
2022-12-11T06:58:44.072Z,-0.09
2022-12-11T07:01:17.218Z,-0.09
2022-12-11T07:03:44.394Z,-0.07
2022-12-11T07:06:12.552Z,-0.11
2022-12-11T07:08:42.752Z,-0.08
2022-12-11T07:11:14.513Z,-0.11
2022-12-11T07:13:44.761Z,-0.02
2022-12-11T07:16:13.212Z,-0.09
2022-12-11T07:18:41.519Z,-0.31
2022-12-11T07:21:10.441Z,-0.21
2022-12-11T07:23:40.258Z,-0.28
2022-12-11T07:26:12.808Z,-0.47
2022-12-11T07:28:40.416Z,-0.42
2022-12-11T07:31:15.271Z,-0.40
2022-12-11T07:33:42.889Z,-0.44
2022-12-11T07:36:11.703Z,-0.31
2022-12-11T07:38:38.962Z,-0.30
2022-12-11T07:41:08.632Z,-0.23
2022-12-11T07:43:35.828Z,-0.16
2022-12-11T07:46:08.082Z,-0.26
2022-12-11T07:48:37.566Z,-0.23
2022-12-11T07:51:27.908Z,-0.09
2022-12-11T07:53:59.185Z,-0.23
2022-12-11T07:56:27.010Z,-0.22
2022-12-11T07:58:54.369Z,-0.04
2022-12-11T08:01:23.738Z,-0.28
2022-12-11T08:03:50.937Z,-0.18
2022-12-11T08:06:18.457Z,-0.25
2022-12-11T08:08:45.572Z,-0.31
2022-12-11T08:11:14.289Z,-0.26
2022-12-11T08:13:42.255Z,-0.30
2022-12-11T08:16:13.102Z,-0.36
2022-12-11T08:18:41.433Z,-0.32
2022-12-11T08:21:10.364Z,-0.38
2022-12-11T08:23:37.269Z,-0.33
2022-12-11T08:26:05.643Z,-0.27
2022-12-11T08:28:32.932Z,-0.26
2022-12-11T08:31:00.026Z,-0.32
2022-12-11T08:33:26.908Z,-0.34
2022-12-11T08:35:53.645Z,-0.25
2022-12-11T08:38:25.215Z,-0.32
2022-12-11T08:40:52.513Z,-0.27
2022-12-11T08:43:19.339Z,-0.38
2022-12-11T08:45:46.782Z,-0.37
2022-12-11T08:48:14.604Z,-0.33
2022-12-11T08:50:41.483Z,-0.33
2022-12-11T08:53:08.330Z,-0.40
2022-12-11T08:55:35.313Z,-0.47
2022-12-11T08:58:02.238Z,-0.50
2022-12-11T09:00:29.044Z,-0.45
2022-12-11T09:02:55.908Z,-0.48
2022-12-11T09:05:22.965Z,-0.48
2022-12-11T09:07:49.756Z,-0.48
2022-12-11T09:10:18.655Z,-0.52
2022-12-11T09:12:45.561Z,-0.50
2022-12-11T09:15:12.939Z,-0.49
2022-12-11T09:17:40.022Z,-0.45
2022-12-11T09:20:07.492Z,-0.49
2022-12-11T09:22:34.434Z,-0.53
2022-12-11T09:25:01.313Z,-0.49
2022-12-11T09:27:29.313Z,-0.48
2022-12-11T09:29:56.161Z,-0.44
2022-12-11T09:32:23.088Z,-0.45
2022-12-11T09:34:51.225Z,-0.50
2022-12-11T09:37:18.039Z,-0.53
2022-12-11T09:39:44.876Z,-0.63
2022-12-11T09:42:29.951Z,-0.58
2022-12-11T09:45:02.428Z,-0.48
2022-12-11T09:47:35.520Z,-0.24
2022-12-11T09:50:14.184Z,-0.31
2022-12-11T09:52:54.594Z,-0.17
2022-12-11T09:55:27.446Z,-0.16
2022-12-11T09:58:00.139Z,-0.13
2022-12-11T10:00:53.485Z,-0.05
2022-12-11T10:03:20.399Z,-0.03
2022-12-11T10:06:04.901Z,0.11
2022-12-11T10:08:38.354Z,0.02
2022-12-11T10:11:34.885Z,0.03
2022-12-11T10:14:23.043Z,0.14
2022-12-11T10:16:55.119Z,0.15
2022-12-11T10:19:30.416Z,0.13
2022-12-11T10:22:00.761Z,0.22
2022-12-11T10:27:37.924Z,0.23
2022-12-11T10:30:07.326Z,0.29
2022-12-11T10:33:06.215Z,0.35
2022-12-11T10:35:39.965Z,0.28
2022-12-11T10:38:16.236Z,0.34
2022-12-11T10:40:56.122Z,0.49
2022-12-11T10:43:36.343Z,0.46
2022-12-11T10:46:04.612Z,0.40
2022-12-11T10:48:53.703Z,0.34
2022-12-11T10:51:40.799Z,0.52
2022-12-11T10:54:20.805Z,0.51
2022-12-11T10:56:51.806Z,0.58
2022-12-11T10:59:33.342Z,0.60
2022-12-11T11:02:00.508Z,0.69
2022-12-11T11:04:36.405Z,0.65
2022-12-11T11:07:24.290Z,0.96
2022-12-11T11:10:03.084Z,0.80
2022-12-11T11:12:29.974Z,0.78
2022-12-11T11:15:11.859Z,0.89
2022-12-11T11:17:54.476Z,1.04
2022-12-11T11:20:30.582Z,1.07
2022-12-11T11:23:00.000Z,1.20
2022-12-11T11:25:28.460Z,1.24
2022-12-11T11:27:58.505Z,1.26
2022-12-11T11:30:36.483Z,1.37
2022-12-11T11:33:24.778Z,1.45
2022-12-11T11:35:53.286Z,1.33
2022-12-11T11:38:23.222Z,1.34
2022-12-11T11:41:00.738Z,1.56
2022-12-11T11:43:48.014Z,1.74
2022-12-11T11:46:30.143Z,1.78
2022-12-11T11:49:24.706Z,1.64
2022-12-11T11:51:59.387Z,1.81
2022-12-11T11:54:35.969Z,1.92
2022-12-11T11:57:25.568Z,1.86
2022-12-11T12:00:09.891Z,2.13
2022-12-11T12:02:43.567Z,2.24
2022-12-11T12:05:13.966Z,2.21
2022-12-11T12:07:43.894Z,2.21
2022-12-11T12:10:32.163Z,2.32
2022-12-11T12:13:49.210Z,2.27
2022-12-11T12:16:53.665Z,2.44
2022-12-11T12:20:10.912Z,2.48
2022-12-11T12:23:15.078Z,2.59
2022-12-11T12:25:52.934Z,2.33
2022-12-11T12:28:55.152Z,2.54
2022-12-11T12:31:31.191Z,2.76
2022-12-11T12:34:36.425Z,2.82
2022-12-11T12:37:24.234Z,3.07
2022-12-11T12:40:09.287Z,3.06
2022-12-11T12:42:42.059Z,3.14
2022-12-11T12:45:18.553Z,3.90
2022-12-11T12:47:53.063Z,3.83
2022-12-11T12:50:23.196Z,3.86
2022-12-11T12:52:51.473Z,3.94
2022-12-11T12:55:29.099Z,4.52
2022-12-11T12:58:01.563Z,4.76
2022-12-11T13:00:37.528Z,4.42
2022-12-11T13:03:22.642Z,4.33
2022-12-11T13:06:03.655Z,4.20
2022-12-11T13:08:47.467Z,4.25
2022-12-11T13:11:19.212Z,3.62
2022-12-11T13:14:01.563Z,3.40
2022-12-11T13:16:38.066Z,3.43
2022-12-11T13:19:42.308Z,3.27
2022-12-11T13:22:15.444Z,2.96
2022-12-11T13:25:02.710Z,2.70
2022-12-11T13:27:32.465Z,2.98
2022-12-11T13:30:06.580Z,2.56
2022-12-11T13:32:33.674Z,2.78
2022-12-11T13:35:04.901Z,2.81
2022-12-11T13:37:43.274Z,2.92
2022-12-11T13:40:20.225Z,2.94
2022-12-11T13:42:59.551Z,3.47
2022-12-11T13:45:39.888Z,3.79
2022-12-11T13:48:23.664Z,4.50
2022-12-11T13:50:52.086Z,4.67
2022-12-11T13:53:19.727Z,3.85
2022-12-11T13:55:47.670Z,3.68
2022-12-11T13:58:22.983Z,3.26
2022-12-11T14:01:10.974Z,3.22
2022-12-11T14:03:52.977Z,2.79
2022-12-11T14:06:19.972Z,3.06
2022-12-11T14:08:50.947Z,3.06
2022-12-11T14:11:27.903Z,2.97
2022-12-11T14:13:56.789Z,3.16
2022-12-11T14:16:24.540Z,3.40
2022-12-11T14:18:52.185Z,3.40
2022-12-11T14:21:24.718Z,3.20
2022-12-11T14:24:03.655Z,3.07
2022-12-11T14:26:32.724Z,3.10
2022-12-11T14:28:59.719Z,3.15
2022-12-11T14:31:35.760Z,2.73
2022-12-11T14:34:06.954Z,2.84
2022-12-11T14:36:35.472Z,2.83
2022-12-11T14:39:07.666Z,2.61
2022-12-11T14:41:42.712Z,2.55
2022-12-11T14:44:15.496Z,2.44
2022-12-11T14:46:52.673Z,2.44
2022-12-11T14:49:27.732Z,2.19
2022-12-11T14:51:56.392Z,2.35
2022-12-11T14:54:39.120Z,2.31
2022-12-11T14:57:07.235Z,2.12
2022-12-11T14:59:44.946Z,2.14
2022-12-11T15:02:23.165Z,2.09
2022-12-11T15:05:23.019Z,2.12
2022-12-11T15:08:03.383Z,1.96
2022-12-11T15:11:00.115Z,1.78
2022-12-11T15:13:27.275Z,1.53
2022-12-11T15:15:55.106Z,1.48
2022-12-11T15:18:23.731Z,1.59
2022-12-11T15:20:52.724Z,1.47
2022-12-11T15:23:20.034Z,1.40
2022-12-11T15:25:55.315Z,1.33
2022-12-11T15:28:35.367Z,1.03
2022-12-11T15:31:05.300Z,0.96
2022-12-11T15:33:34.688Z,0.85
2022-12-11T15:36:24.916Z,0.67
2022-12-11T15:38:51.868Z,0.74
2022-12-11T15:41:26.364Z,0.65
2022-12-11T15:43:58.601Z,0.56
2022-12-11T15:46:26.266Z,0.47
2022-12-11T15:48:53.567Z,0.40
2022-12-11T15:51:20.433Z,0.46
2022-12-11T15:53:47.231Z,0.59
2022-12-11T15:56:15.967Z,0.42
2022-12-11T15:58:47.350Z,0.29
2022-12-11T16:01:14.360Z,0.27
2022-12-11T16:03:41.155Z,0.18
2022-12-11T16:06:11.971Z,0.07
2022-12-11T16:08:38.769Z,0.11
2022-12-11T16:11:05.727Z,0.10
2022-12-11T16:13:32.523Z,0.35
2022-12-11T16:15:59.321Z,0.43
2022-12-11T16:18:26.891Z,0.45
2022-12-11T16:20:53.761Z,0.15
2022-12-11T16:23:21.048Z,0.07
2022-12-11T16:25:48.531Z,-0.33
2022-12-11T16:28:18.248Z,-0.35
2022-12-11T16:30:45.740Z,-0.50
2022-12-11T16:33:13.637Z,-0.35
2022-12-11T16:35:42.675Z,-0.18
2022-12-11T16:38:10.617Z,-0.08
2022-12-11T16:40:38.102Z,-0.26
2022-12-11T16:43:05.450Z,-0.15
2022-12-11T16:45:32.659Z,-0.37
2022-12-11T16:48:03.132Z,-0.40
2022-12-11T16:50:30.023Z,-0.46
2022-12-11T16:52:57.267Z,-0.52
2022-12-11T16:55:24.121Z,-0.57
2022-12-11T16:57:50.853Z,-0.46
2022-12-11T17:00:17.973Z,-0.28
2022-12-11T17:02:44.819Z,-0.25
2022-12-11T17:05:11.898Z,-0.35
2022-12-11T17:07:40.518Z,-0.42
2022-12-11T17:10:07.924Z,-0.32
2022-12-11T17:12:34.715Z,-0.43
2022-12-11T17:15:01.612Z,-0.51
2022-12-11T17:17:28.372Z,-0.67
2022-12-11T17:19:55.847Z,-0.68
2022-12-11T17:22:22.735Z,-0.82
2022-12-11T17:24:49.896Z,-0.95
2022-12-11T17:27:17.026Z,-1.13
2022-12-11T17:29:44.187Z,-1.15
2022-12-11T17:32:11.087Z,-0.99
2022-12-11T17:34:38.768Z,-0.87
2022-12-11T17:37:06.280Z,-0.86
2022-12-11T17:39:33.499Z,-0.73
2022-12-11T17:42:01.037Z,-0.59
2022-12-11T17:44:30.706Z,-0.62
2022-12-11T17:46:58.496Z,-0.81
2022-12-11T17:49:25.408Z,-0.69
2022-12-11T17:51:53.333Z,-0.78
2022-12-11T17:54:20.340Z,-0.93
2022-12-11T17:56:47.254Z,-0.90
2022-12-11T17:59:14.164Z,-0.85
2022-12-11T18:01:41.090Z,-0.75
2022-12-11T18:04:07.987Z,-0.79
2022-12-11T18:06:35.048Z,-0.89
2022-12-11T18:09:02.041Z,-1.16
2022-12-11T18:11:28.947Z,-1.11
2022-12-11T18:13:55.881Z,-0.97
2022-12-11T18:16:32.715Z,-1.13
2022-12-11T18:18:59.759Z,-1.07
2022-12-11T18:21:29.718Z,-0.97
2022-12-11T18:23:57.080Z,-1.03
2022-12-11T18:26:24.671Z,-0.84
2022-12-11T18:28:53.020Z,-1.08
2022-12-11T18:31:21.004Z,-0.88
2022-12-11T18:33:48.240Z,-0.83
2022-12-11T18:36:16.686Z,-0.86
2022-12-11T18:38:43.609Z,-0.92
2022-12-11T18:41:12.274Z,-0.98
2022-12-11T18:43:40.754Z,-0.92
2022-12-11T18:46:09.896Z,-0.93
2022-12-11T18:48:36.920Z,-1.18
2022-12-11T18:51:08.358Z,-1.11
2022-12-11T18:53:36.229Z,-1.32
2022-12-11T18:56:10.322Z,-1.43
2022-12-11T18:58:37.558Z,-1.38
2022-12-11T19:01:08.470Z,-1.16
2022-12-11T19:03:36.462Z,-1.07
2022-12-11T19:06:12.129Z,-1.26
2022-12-11T19:08:39.704Z,-1.38
2022-12-11T19:11:07.163Z,-1.69
2022-12-11T19:13:34.374Z,-1.95
2022-12-11T19:16:01.803Z,-1.74
2022-12-11T19:18:28.719Z,-1.42
2022-12-11T19:21:06.423Z,-1.40
2022-12-11T19:23:35.286Z,-1.47
2022-12-11T19:26:02.474Z,-1.57
2022-12-11T19:28:29.504Z,-1.58
2022-12-11T19:30:56.346Z,-1.69
2022-12-11T19:33:23.130Z,-1.76
2022-12-11T19:35:50.081Z,-1.69
2022-12-11T19:38:17.087Z,-1.81
2022-12-11T19:40:44.530Z,-1.95
2022-12-11T19:43:11.875Z,-1.79
2022-12-11T19:45:39.118Z,-1.78
2022-12-11T19:48:06.188Z,-1.68
2022-12-11T19:50:35.762Z,-1.64
2022-12-11T19:53:03.024Z,-1.98
2022-12-11T19:55:29.905Z,-1.95
2022-12-11T19:57:56.730Z,-1.99
2022-12-11T20:00:24.680Z,-2.06
2022-12-11T20:02:51.855Z,-1.90
2022-12-11T20:05:18.735Z,-1.78
2022-12-11T20:07:45.860Z,-2.05
2022-12-11T20:10:12.996Z,-1.92
2022-12-11T20:12:39.915Z,-1.89
2022-12-11T20:15:07.103Z,-2.07
2022-12-11T20:17:33.949Z,-1.96
2022-12-11T20:20:00.808Z,-1.92
2022-12-11T20:22:27.582Z,-2.22
2022-12-11T20:24:54.405Z,-2.11
2022-12-11T20:27:21.266Z,-2.12
2022-12-11T20:29:48.169Z,-1.98
2022-12-11T20:32:14.992Z,-2.01
2022-12-11T20:34:41.956Z,-2.29
2022-12-11T20:37:08.836Z,-2.45
2022-12-11T20:39:36.708Z,-2.33
2022-12-11T20:42:05.050Z,-2.38
2022-12-11T20:44:32.152Z,-2.58
2022-12-11T20:46:59.065Z,-2.59
2022-12-11T20:49:27.561Z,-2.35
2022-12-11T20:51:55.555Z,-2.19
2022-12-11T20:54:22.305Z,-2.12
2022-12-11T20:56:50.770Z,-2.06
2022-12-11T20:59:18.101Z,-2.17
2022-12-11T21:01:45.135Z,-2.11
2022-12-11T21:04:12.081Z,-2.21
2022-12-11T21:06:40.664Z,-2.20
2022-12-11T21:09:19.001Z,-2.21
2022-12-11T21:11:45.959Z,-2.23
2022-12-11T21:14:13.457Z,-2.31
2022-12-11T21:16:40.723Z,-2.25
2022-12-11T21:19:10.209Z,-2.22
2022-12-11T21:21:40.698Z,-2.36
2022-12-11T21:24:09.128Z,-2.32
2022-12-11T21:26:36.224Z,-2.34
2022-12-11T21:29:03.148Z,-2.44
2022-12-11T21:31:31.312Z,-2.70
2022-12-11T21:33:58.822Z,-2.92
2022-12-11T21:36:25.632Z,-2.93
2022-12-11T21:38:52.845Z,-2.64
2022-12-11T21:41:22.493Z,-2.46
2022-12-11T21:46:38.750Z,-2.39
2022-12-11T21:49:06.061Z,-2.49
2022-12-11T21:51:37.992Z,-2.88
2022-12-11T21:54:07.659Z,-2.68
2022-12-11T21:56:34.483Z,-2.56
2022-12-11T21:59:01.948Z,-2.55
2022-12-11T22:01:32.061Z,-2.62
2022-12-11T22:03:59.389Z,-2.61
2022-12-11T22:06:26.171Z,-2.86
2022-12-11T22:08:53.349Z,-2.83
2022-12-11T22:11:22.432Z,-2.89
2022-12-11T22:13:49.448Z,-2.97
2022-12-11T22:16:17.205Z,-2.82
2022-12-11T22:18:44.132Z,-2.93
2022-12-11T22:21:11.024Z,-2.95
2022-12-11T22:23:39.429Z,-2.79
2022-12-11T22:26:07.703Z,-2.77
2022-12-11T22:28:34.749Z,-2.78
2022-12-11T22:31:01.885Z,-2.70
2022-12-11T22:33:28.858Z,-2.54
2022-12-11T22:35:57.250Z,-2.66
2022-12-11T22:38:24.574Z,-2.65
2022-12-11T22:40:51.907Z,-2.95
2022-12-11T22:43:18.869Z,-2.61
2022-12-11T22:45:45.915Z,-2.51
2022-12-11T22:48:12.864Z,-2.50
2022-12-11T22:50:40.893Z,-2.44
2022-12-11T22:53:07.849Z,-2.71
2022-12-11T22:55:38.433Z,-2.77
2022-12-11T22:58:05.255Z,-2.49
2022-12-11T23:00:32.103Z,-2.66
2022-12-11T23:02:59.058Z,-2.69
2022-12-11T23:05:25.952Z,-2.94
2022-12-11T23:07:53.060Z,-2.85
2022-12-11T23:10:20.055Z,-2.78
2022-12-11T23:12:46.938Z,-2.76
2022-12-11T23:15:14.207Z,-2.84
2022-12-11T23:17:41.198Z,-2.89
2022-12-11T23:20:08.501Z,-2.92
2022-12-11T23:22:35.382Z,-2.76
2022-12-11T23:25:02.306Z,-2.74
2022-12-11T23:27:29.399Z,-2.77
2022-12-11T23:29:56.503Z,-2.84
2022-12-11T23:32:23.309Z,-2.94
2022-12-11T23:34:50.246Z,-3.05
2022-12-11T23:37:17.079Z,-3.04
2022-12-11T23:39:43.869Z,-2.97
2022-12-11T23:42:10.740Z,-2.94
2022-12-11T23:44:37.633Z,-2.91
2022-12-11T23:47:04.447Z,-2.97
2022-12-11T23:49:31.280Z,-3.02
2022-12-11T23:51:58.049Z,-3.09
2022-12-11T23:54:24.876Z,-3.08
2022-12-11T23:56:51.659Z,-2.86
2022-12-11T23:59:18.421Z,-2.97
